sensor_id;sensor_type;location;lat;lon;timestamp;P1;durP1;ratioP1;P2;durP2;ratioP2
20230;SDS011;10274;49.022;9.338;2024-03-02T00:00:30;3.17;;;2.30;;
20230;SDS011;10274;49.022;9.338;2024-03-02T00:02:57;2.80;;;2.50;;
20230;SDS011;10274;49.022;9.338;2024-03-02T00:05:24;2.77;;;2.20;;
20230;SDS011;10274;49.022;9.338;2024-03-02T00:07:52;2.13;;;1.90;;
20230;SDS011;10274;49.022;9.338;2024-03-02T00:10:22;2.17;;;1.93;;
20230;SDS011;10274;49.022;9.338;2024-03-02T00:12:53;2.43;;;1.87;;
20230;SDS011;10274;49.022;9.338;2024-03-02T00:15:27;2.37;;;1.57;;
20230;SDS011;10274;49.022;9.338;2024-03-02T00:18:12;3.13;;;2.50;;
20230;SDS011;10274;49.022;9.338;2024-03-02T00:20:42;2.13;;;1.93;;
20230;SDS011;10274;49.022;9.338;2024-03-02T00:23:09;1.70;;;1.60;;
20230;SDS011;10274;49.022;9.338;2024-03-02T00:25:41;2.13;;;1.87;;
20230;SDS011;10274;49.022;9.338;2024-03-02T00:28:16;3.80;;;2.00;;
20230;SDS011;10274;49.022;9.338;2024-03-02T00:30:55;2.07;;;1.63;;
20230;SDS011;10274;49.022;9.338;2024-03-02T00:33:25;3.10;;;2.53;;
20230;SDS011;10274;49.022;9.338;2024-03-02T00:35:53;2.97;;;2.00;;
20230;SDS011;10274;49.022;9.338;2024-03-02T00:38:21;1.93;;;1.70;;
20230;SDS011;10274;49.022;9.338;2024-03-02T00:40:49;2.23;;;2.03;;
20230;SDS011;10274;49.022;9.338;2024-03-02T00:43:29;3.10;;;1.70;;
20230;SDS011;10274;49.022;9.338;2024-03-02T00:46:07;2.30;;;1.70;;
20230;SDS011;10274;49.022;9.338;2024-03-02T00:48:34;2.77;;;1.60;;
20230;SDS011;10274;49.022;9.338;2024-03-02T00:51:02;3.10;;;1.97;;
20230;SDS011;10274;49.022;9.338;2024-03-02T00:53:29;2.53;;;2.33;;
20230;SDS011;10274;49.022;9.338;2024-03-02T00:55:58;2.00;;;1.80;;
20230;SDS011;10274;49.022;9.338;2024-03-02T00:58:26;2.37;;;1.90;;
20230;SDS011;10274;49.022;9.338;2024-03-02T01:00:53;3.30;;;1.97;;
20230;SDS011;10274;49.022;9.338;2024-03-02T01:03:20;2.07;;;1.83;;
20230;SDS011;10274;49.022;9.338;2024-03-02T01:05:47;2.27;;;2.03;;
20230;SDS011;10274;49.022;9.338;2024-03-02T01:08:14;1.77;;;1.67;;
20230;SDS011;10274;49.022;9.338;2024-03-02T01:10:40;2.13;;;1.73;;
20230;SDS011;10274;49.022;9.338;2024-03-02T01:13:09;3.30;;;2.20;;
20230;SDS011;10274;49.022;9.338;2024-03-02T01:15:36;2.13;;;1.57;;
20230;SDS011;10274;49.022;9.338;2024-03-02T01:18:02;2.43;;;2.20;;
20230;SDS011;10274;49.022;9.338;2024-03-02T01:20:30;2.50;;;2.10;;
20230;SDS011;10274;49.022;9.338;2024-03-02T01:22:56;2.30;;;2.10;;
20230;SDS011;10274;49.022;9.338;2024-03-02T01:25:23;2.70;;;2.03;;
20230;SDS011;10274;49.022;9.338;2024-03-02T01:27:50;2.37;;;2.13;;
20230;SDS011;10274;49.022;9.338;2024-03-02T01:30:18;2.40;;;2.17;;
20230;SDS011;10274;49.022;9.338;2024-03-02T01:32:44;3.43;;;2.13;;
20230;SDS011;10274;49.022;9.338;2024-03-02T01:35:11;2.53;;;2.33;;
20230;SDS011;10274;49.022;9.338;2024-03-02T01:37:38;4.63;;;2.60;;
20230;SDS011;10274;49.022;9.338;2024-03-02T01:40:05;2.47;;;1.90;;
20230;SDS011;10274;49.022;9.338;2024-03-02T01:42:34;3.03;;;2.77;;
20230;SDS011;10274;49.022;9.338;2024-03-02T01:45:02;3.13;;;2.23;;
20230;SDS011;10274;49.022;9.338;2024-03-02T01:47:30;2.77;;;2.00;;
20230;SDS011;10274;49.022;9.338;2024-03-02T01:49:58;2.23;;;2.03;;
20230;SDS011;10274;49.022;9.338;2024-03-02T01:52:26;3.10;;;2.30;;
20230;SDS011;10274;49.022;9.338;2024-03-02T01:54:53;2.20;;;1.73;;
20230;SDS011;10274;49.022;9.338;2024-03-02T01:57:20;2.43;;;2.23;;
20230;SDS011;10274;49.022;9.338;2024-03-02T01:59:46;3.57;;;2.07;;
20230;SDS011;10274;49.022;9.338;2024-03-02T02:02:13;3.20;;;2.37;;
20230;SDS011;10274;49.022;9.338;2024-03-02T02:04:42;2.20;;;1.63;;
20230;SDS011;10274;49.022;9.338;2024-03-02T02:07:09;2.37;;;2.10;;
20230;SDS011;10274;49.022;9.338;2024-03-02T02:09:36;3.07;;;2.60;;
20230;SDS011;10274;49.022;9.338;2024-03-02T02:12:03;3.90;;;2.17;;
20230;SDS011;10274;49.022;9.338;2024-03-02T02:14:31;2.73;;;2.50;;
20230;SDS011;10274;49.022;9.338;2024-03-02T02:16:58;3.50;;;2.50;;
20230;SDS011;10274;49.022;9.338;2024-03-02T02:19:25;2.73;;;1.90;;
20230;SDS011;10274;49.022;9.338;2024-03-02T02:21:53;2.30;;;2.10;;
20230;SDS011;10274;49.022;9.338;2024-03-02T02:24:20;3.30;;;2.40;;
20230;SDS011;10274;49.022;9.338;2024-03-02T02:26:46;2.07;;;1.70;;
20230;SDS011;10274;49.022;9.338;2024-03-02T02:29:13;3.23;;;1.80;;
20230;SDS011;10274;49.022;9.338;2024-03-02T02:31:40;3.00;;;2.37;;
20230;SDS011;10274;49.022;9.338;2024-03-02T02:34:07;2.03;;;1.80;;
20230;SDS011;10274;49.022;9.338;2024-03-02T02:36:35;1.80;;;1.23;;
20230;SDS011;10274;49.022;9.338;2024-03-02T02:39:06;3.50;;;2.87;;
20230;SDS011;10274;49.022;9.338;2024-03-02T02:41:35;2.73;;;2.17;;
20230;SDS011;10274;49.022;9.338;2024-03-02T02:44:02;1.70;;;1.60;;
20230;SDS011;10274;49.022;9.338;2024-03-02T02:46:29;2.27;;;1.70;;
20230;SDS011;10274;49.022;9.338;2024-03-02T02:48:56;1.60;;;1.50;;
20230;SDS011;10274;49.022;9.338;2024-03-02T02:51:22;2.53;;;2.27;;
20230;SDS011;10274;49.022;9.338;2024-03-02T02:53:50;3.00;;;2.27;;
20230;SDS011;10274;49.022;9.338;2024-03-02T02:56:18;2.70;;;2.00;;
20230;SDS011;10274;49.022;9.338;2024-03-02T02:58:45;1.70;;;1.60;;
20230;SDS011;10274;49.022;9.338;2024-03-02T03:01:11;2.40;;;2.13;;
20230;SDS011;10274;49.022;9.338;2024-03-02T03:03:38;2.07;;;1.73;;
20230;SDS011;10274;49.022;9.338;2024-03-02T03:06:05;4.87;;;2.30;;
20230;SDS011;10274;49.022;9.338;2024-03-02T03:08:32;2.57;;;2.37;;
20230;SDS011;10274;49.022;9.338;2024-03-02T03:10:59;3.40;;;2.03;;
20230;SDS011;10274;49.022;9.338;2024-03-02T03:13:27;2.53;;;2.33;;
20230;SDS011;10274;49.022;9.338;2024-03-02T03:15:54;2.23;;;1.80;;
20230;SDS011;10274;49.022;9.338;2024-03-02T03:18:21;4.07;;;3.27;;
20230;SDS011;10274;49.022;9.338;2024-03-02T03:20:48;2.97;;;1.93;;
20230;SDS011;10274;49.022;9.338;2024-03-02T03:23:15;2.23;;;2.03;;
20230;SDS011;10274;49.022;9.338;2024-03-02T03:25:42;2.37;;;2.00;;
20230;SDS011;10274;49.022;9.338;2024-03-02T03:28:09;2.10;;;1.70;;
20230;SDS011;10274;49.022;9.338;2024-03-02T03:30:37;3.20;;;1.90;;
20230;SDS011;10274;49.022;9.338;2024-03-02T03:33:04;2.80;;;2.53;;
20230;SDS011;10274;49.022;9.338;2024-03-02T03:35:32;2.63;;;2.43;;
20230;SDS011;10274;49.022;9.338;2024-03-02T03:37:58;2.33;;;2.00;;
20230;SDS011;10274;49.022;9.338;2024-03-02T03:40:25;2.60;;;2.07;;
20230;SDS011;10274;49.022;9.338;2024-03-02T03:42:52;3.57;;;2.80;;
20230;SDS011;10274;49.022;9.338;2024-03-02T03:45:21;3.13;;;2.77;;
20230;SDS011;10274;49.022;9.338;2024-03-02T03:47:49;2.60;;;1.83;;
20230;SDS011;10274;49.022;9.338;2024-03-02T03:50:15;3.03;;;2.03;;
20230;SDS011;10274;49.022;9.338;2024-03-02T03:52:42;2.77;;;2.40;;
20230;SDS011;10274;49.022;9.338;2024-03-02T03:55:09;2.07;;;1.70;;
20230;SDS011;10274;49.022;9.338;2024-03-02T03:57:36;2.93;;;2.57;;
20230;SDS011;10274;49.022;9.338;2024-03-02T04:00:01;3.00;;;2.43;;
20230;SDS011;10274;49.022;9.338;2024-03-02T04:02:29;3.77;;;2.83;;
20230;SDS011;10274;49.022;9.338;2024-03-02T04:04:57;2.63;;;2.30;;
20230;SDS011;10274;49.022;9.338;2024-03-02T04:07:24;3.33;;;2.17;;
20230;SDS011;10274;49.022;9.338;2024-03-02T04:09:51;2.50;;;2.03;;
20230;SDS011;10274;49.022;9.338;2024-03-02T04:12:16;2.67;;;2.27;;
20230;SDS011;10274;49.022;9.338;2024-03-02T04:14:43;2.70;;;2.00;;
20230;SDS011;10274;49.022;9.338;2024-03-02T04:17:10;2.23;;;1.90;;
20230;SDS011;10274;49.022;9.338;2024-03-02T04:19:36;2.50;;;2.03;;
20230;SDS011;10274;49.022;9.338;2024-03-02T04:22:04;3.50;;;2.17;;
20230;SDS011;10274;49.022;9.338;2024-03-02T04:24:31;3.63;;;2.57;;
20230;SDS011;10274;49.022;9.338;2024-03-02T04:26:58;3.80;;;2.00;;
20230;SDS011;10274;49.022;9.338;2024-03-02T04:29:25;2.10;;;1.90;;
20230;SDS011;10274;49.022;9.338;2024-03-02T04:31:51;3.60;;;1.97;;
20230;SDS011;10274;49.022;9.338;2024-03-02T04:34:26;2.10;;;1.70;;
20230;SDS011;10274;49.022;9.338;2024-03-02T04:36:52;2.90;;;1.97;;
20230;SDS011;10274;49.022;9.338;2024-03-02T04:39:19;2.97;;;2.10;;
20230;SDS011;10274;49.022;9.338;2024-03-02T04:41:46;2.27;;;2.00;;
20230;SDS011;10274;49.022;9.338;2024-03-02T04:44:13;2.30;;;2.10;;
20230;SDS011;10274;49.022;9.338;2024-03-02T04:46:39;2.70;;;2.27;;
20230;SDS011;10274;49.022;9.338;2024-03-02T04:49:06;2.20;;;2.00;;
20230;SDS011;10274;49.022;9.338;2024-03-02T04:51:34;2.07;;;1.77;;
20230;SDS011;10274;49.022;9.338;2024-03-02T04:54:01;2.73;;;2.37;;
20230;SDS011;10274;49.022;9.338;2024-03-02T04:56:27;2.63;;;2.20;;
20230;SDS011;10274;49.022;9.338;2024-03-02T04:59:09;2.53;;;2.17;;
20230;SDS011;10274;49.022;9.338;2024-03-02T05:01:36;2.80;;;2.20;;
20230;SDS011;10274;49.022;9.338;2024-03-02T05:04:03;3.93;;;2.47;;
20230;SDS011;10274;49.022;9.338;2024-03-02T05:06:30;3.00;;;2.67;;
20230;SDS011;10274;49.022;9.338;2024-03-02T05:08:58;3.30;;;2.57;;
20230;SDS011;10274;49.022;9.338;2024-03-02T05:11:24;2.57;;;2.00;;
20230;SDS011;10274;49.022;9.338;2024-03-02T05:14:09;2.87;;;2.37;;
20230;SDS011;10274;49.022;9.338;2024-03-02T05:16:35;6.07;;;2.80;;
20230;SDS011;10274;49.022;9.338;2024-03-02T05:19:03;2.43;;;1.90;;
20230;SDS011;10274;49.022;9.338;2024-03-02T05:21:31;2.63;;;2.00;;
20230;SDS011;10274;49.022;9.338;2024-03-02T05:23:59;2.97;;;2.30;;
20230;SDS011;10274;49.022;9.338;2024-03-02T05:26:27;2.40;;;2.20;;
20230;SDS011;10274;49.022;9.338;2024-03-02T05:28:54;4.57;;;2.60;;
20230;SDS011;10274;49.022;9.338;2024-03-02T05:31:20;5.30;;;2.47;;
20230;SDS011;10274;49.022;9.338;2024-03-02T05:33:47;2.87;;;1.90;;
20230;SDS011;10274;49.022;9.338;2024-03-02T05:36:14;3.80;;;2.23;;
20230;SDS011;10274;49.022;9.338;2024-03-02T05:38:40;2.73;;;2.23;;
20230;SDS011;10274;49.022;9.338;2024-03-02T05:41:09;2.23;;;2.03;;
20230;SDS011;10274;49.022;9.338;2024-03-02T05:43:36;2.83;;;2.40;;
20230;SDS011;10274;49.022;9.338;2024-03-02T05:46:03;1.97;;;1.63;;
20230;SDS011;10274;49.022;9.338;2024-03-02T05:48:30;4.37;;;1.97;;
20230;SDS011;10274;49.022;9.338;2024-03-02T05:50:57;3.47;;;3.17;;
20230;SDS011;10274;49.022;9.338;2024-03-02T05:53:23;2.83;;;2.27;;
20230;SDS011;10274;49.022;9.338;2024-03-02T05:55:50;2.43;;;2.23;;
20230;SDS011;10274;49.022;9.338;2024-03-02T05:58:21;5.90;;;3.13;;
20230;SDS011;10274;49.022;9.338;2024-03-02T06:00:58;2.33;;;1.83;;
20230;SDS011;10274;49.022;9.338;2024-03-02T06:03:25;2.80;;;2.13;;
20230;SDS011;10274;49.022;9.338;2024-03-02T06:05:53;3.83;;;2.93;;
20230;SDS011;10274;49.022;9.338;2024-03-02T06:08:20;2.70;;;2.10;;
20230;SDS011;10274;49.022;9.338;2024-03-02T06:10:47;2.93;;;2.30;;
20230;SDS011;10274;49.022;9.338;2024-03-02T06:13:13;1.57;;;1.47;;
20230;SDS011;10274;49.022;9.338;2024-03-02T06:15:41;2.20;;;1.83;;
20230;SDS011;10274;49.022;9.338;2024-03-02T06:18:08;4.10;;;2.77;;
20230;SDS011;10274;49.022;9.338;2024-03-02T06:20:35;3.07;;;2.10;;
20230;SDS011;10274;49.022;9.338;2024-03-02T06:23:02;0.83;;;0.83;;
20230;SDS011;10274;49.022;9.338;2024-03-02T06:25:29;2.50;;;2.30;;
20230;SDS011;10274;49.022;9.338;2024-03-02T06:27:55;2.40;;;1.93;;
20230;SDS011;10274;49.022;9.338;2024-03-02T06:30:22;2.00;;;1.53;;
20230;SDS011;10274;49.022;9.338;2024-03-02T06:32:50;2.60;;;2.40;;
20230;SDS011;10274;49.022;9.338;2024-03-02T06:35:17;3.23;;;2.13;;
20230;SDS011;10274;49.022;9.338;2024-03-02T06:37:44;1.87;;;1.67;;
20230;SDS011;10274;49.022;9.338;2024-03-02T06:40:10;3.40;;;2.10;;
20230;SDS011;10274;49.022;9.338;2024-03-02T06:42:37;2.47;;;2.07;;
20230;SDS011;10274;49.022;9.338;2024-03-02T06:45:04;2.90;;;2.27;;
20230;SDS011;10274;49.022;9.338;2024-03-02T06:47:32;3.03;;;2.00;;
20230;SDS011;10274;49.022;9.338;2024-03-02T06:50:00;3.67;;;3.13;;
20230;SDS011;10274;49.022;9.338;2024-03-02T06:52:26;5.10;;;2.83;;
20230;SDS011;10274;49.022;9.338;2024-03-02T06:54:53;3.63;;;2.17;;
20230;SDS011;10274;49.022;9.338;2024-03-02T06:57:20;3.83;;;2.97;;
20230;SDS011;10274;49.022;9.338;2024-03-02T06:59:47;4.23;;;3.17;;
20230;SDS011;10274;49.022;9.338;2024-03-02T07:02:15;3.13;;;2.40;;
20230;SDS011;10274;49.022;9.338;2024-03-02T07:04:42;1.90;;;1.57;;
20230;SDS011;10274;49.022;9.338;2024-03-02T07:07:11;4.67;;;3.50;;
20230;SDS011;10274;49.022;9.338;2024-03-02T07:09:37;3.07;;;2.37;;
20230;SDS011;10274;49.022;9.338;2024-03-02T07:12:05;3.37;;;2.50;;
20230;SDS011;10274;49.022;9.338;2024-03-02T07:14:31;4.53;;;3.80;;
20230;SDS011;10274;49.022;9.338;2024-03-02T07:17:24;3.60;;;2.63;;
20230;SDS011;10274;49.022;9.338;2024-03-02T07:19:51;5.20;;;2.87;;
20230;SDS011;10274;49.022;9.338;2024-03-02T07:22:19;3.53;;;2.90;;
20230;SDS011;10274;49.022;9.338;2024-03-02T07:24:46;2.90;;;2.17;;
20230;SDS011;10274;49.022;9.338;2024-03-02T07:27:13;2.70;;;2.17;;
20230;SDS011;10274;49.022;9.338;2024-03-02T07:29:40;2.10;;;1.87;;
20230;SDS011;10274;49.022;9.338;2024-03-02T07:32:07;2.80;;;2.40;;
20230;SDS011;10274;49.022;9.338;2024-03-02T07:34:34;2.43;;;2.00;;
20230;SDS011;10274;49.022;9.338;2024-03-02T07:37:01;2.60;;;2.40;;
20230;SDS011;10274;49.022;9.338;2024-03-02T07:39:29;4.23;;;2.57;;
20230;SDS011;10274;49.022;9.338;2024-03-02T07:41:56;3.10;;;2.57;;
20230;SDS011;10274;49.022;9.338;2024-03-02T07:44:23;2.10;;;1.70;;
20230;SDS011;10274;49.022;9.338;2024-03-02T07:46:49;2.67;;;1.50;;
20230;SDS011;10274;49.022;9.338;2024-03-02T07:49:17;2.53;;;1.80;;
20230;SDS011;10274;49.022;9.338;2024-03-02T07:51:44;2.47;;;2.27;;
20230;SDS011;10274;49.022;9.338;2024-03-02T07:54:11;2.60;;;1.83;;
20230;SDS011;10274;49.022;9.338;2024-03-02T07:56:39;1.97;;;1.70;;
20230;SDS011;10274;49.022;9.338;2024-03-02T07:59:06;1.73;;;1.40;;
20230;SDS011;10274;49.022;9.338;2024-03-02T08:01:33;1.40;;;1.30;;
20230;SDS011;10274;49.022;9.338;2024-03-02T08:04:00;2.53;;;2.07;;
20230;SDS011;10274;49.022;9.338;2024-03-02T08:06:28;1.97;;;1.70;;
20230;SDS011;10274;49.022;9.338;2024-03-02T08:08:56;1.37;;;1.27;;
20230;SDS011;10274;49.022;9.338;2024-03-02T08:11:24;1.33;;;1.23;;
20230;SDS011;10274;49.022;9.338;2024-03-02T08:13:53;1.13;;;1.03;;
20230;SDS011;10274;49.022;9.338;2024-03-02T08:16:20;1.47;;;1.07;;
20230;SDS011;10274;49.022;9.338;2024-03-02T08:18:47;1.57;;;1.10;;
20230;SDS011;10274;49.022;9.338;2024-03-02T08:21:14;1.30;;;1.20;;
20230;SDS011;10274;49.022;9.338;2024-03-02T08:23:41;2.00;;;1.30;;
20230;SDS011;10274;49.022;9.338;2024-03-02T08:26:08;1.70;;;1.10;;
20230;SDS011;10274;49.022;9.338;2024-03-02T08:28:35;1.63;;;1.10;;
20230;SDS011;10274;49.022;9.338;2024-03-02T08:31:05;1.40;;;1.30;;
20230;SDS011;10274;49.022;9.338;2024-03-02T08:33:31;2.13;;;1.37;;
20230;SDS011;10274;49.022;9.338;2024-03-02T08:35:58;2.37;;;2.17;;
20230;SDS011;10274;49.022;9.338;2024-03-02T08:38:25;1.37;;;0.97;;
20230;SDS011;10274;49.022;9.338;2024-03-02T08:40:52;1.23;;;0.70;;
20230;SDS011;10274;49.022;9.338;2024-03-02T08:43:19;0.57;;;0.57;;
20230;SDS011;10274;49.022;9.338;2024-03-02T08:45:47;0.80;;;0.80;;
20230;SDS011;10274;49.022;9.338;2024-03-02T08:48:17;1.63;;;0.80;;
20230;SDS011;10274;49.022;9.338;2024-03-02T08:50:45;0.50;;;0.50;;
20230;SDS011;10274;49.022;9.338;2024-03-02T08:53:11;0.97;;;0.67;;
20230;SDS011;10274;49.022;9.338;2024-03-02T08:55:38;1.57;;;0.67;;
20230;SDS011;10274;49.022;9.338;2024-03-02T08:58:05;1.10;;;1.10;;
20230;SDS011;10274;49.022;9.338;2024-03-02T09:00:32;0.83;;;0.70;;
20230;SDS011;10274;49.022;9.338;2024-03-02T09:02:59;1.20;;;1.10;;
20230;SDS011;10274;49.022;9.338;2024-03-02T09:05:27;1.30;;;0.80;;
20230;SDS011;10274;49.022;9.338;2024-03-02T09:07:53;0.50;;;0.50;;
20230;SDS011;10274;49.022;9.338;2024-03-02T09:10:20;1.27;;;0.63;;
20230;SDS011;10274;49.022;9.338;2024-03-02T09:12:47;0.70;;;0.63;;
20230;SDS011;10274;49.022;9.338;2024-03-02T09:15:14;0.63;;;0.50;;
20230;SDS011;10274;49.022;9.338;2024-03-02T09:17:41;1.40;;;0.70;;
20230;SDS011;10274;49.022;9.338;2024-03-02T09:20:08;1.53;;;0.90;;
20230;SDS011;10274;49.022;9.338;2024-03-02T09:22:36;0.33;;;0.33;;
20230;SDS011;10274;49.022;9.338;2024-03-02T09:25:03;0.87;;;0.57;;
20230;SDS011;10274;49.022;9.338;2024-03-02T09:27:32;0.47;;;0.33;;
20230;SDS011;10274;49.022;9.338;2024-03-02T09:29:59;1.03;;;0.77;;
20230;SDS011;10274;49.022;9.338;2024-03-02T09:32:25;1.70;;;0.30;;
20230;SDS011;10274;49.022;9.338;2024-03-02T09:34:52;0.40;;;0.40;;
20230;SDS011;10274;49.022;9.338;2024-03-02T09:37:20;0.67;;;0.60;;
20230;SDS011;10274;49.022;9.338;2024-03-02T09:39:48;0.30;;;0.30;;
20230;SDS011;10274;49.022;9.338;2024-03-02T09:42:17;0.67;;;0.60;;
20230;SDS011;10274;49.022;9.338;2024-03-02T09:44:43;0.70;;;0.50;;
20230;SDS011;10274;49.022;9.338;2024-03-02T09:47:11;1.80;;;1.23;;
20230;SDS011;10274;49.022;9.338;2024-03-02T09:49:37;0.57;;;0.40;;
20230;SDS011;10274;49.022;9.338;2024-03-02T09:52:04;1.13;;;0.53;;
20230;SDS011;10274;49.022;9.338;2024-03-02T09:54:32;0.47;;;0.47;;
20230;SDS011;10274;49.022;9.338;2024-03-02T09:57:00;0.47;;;0.47;;
20230;SDS011;10274;49.022;9.338;2024-03-02T09:59:28;0.50;;;0.50;;
20230;SDS011;10274;49.022;9.338;2024-03-02T10:01:55;0.50;;;0.50;;
20230;SDS011;10274;49.022;9.338;2024-03-02T10:04:23;0.30;;;0.30;;
20230;SDS011;10274;49.022;9.338;2024-03-02T10:06:55;0.60;;;0.40;;
20230;SDS011;10274;49.022;9.338;2024-03-02T10:09:37;0.33;;;0.30;;
20230;SDS011;10274;49.022;9.338;2024-03-02T10:12:05;0.50;;;0.47;;
20230;SDS011;10274;49.022;9.338;2024-03-02T10:14:33;0.43;;;0.30;;
20230;SDS011;10274;49.022;9.338;2024-03-02T10:17:04;0.40;;;0.40;;
20230;SDS011;10274;49.022;9.338;2024-03-02T10:19:31;2.00;;;0.70;;
20230;SDS011;10274;49.022;9.338;2024-03-02T10:22:00;1.07;;;1.00;;
20230;SDS011;10274;49.022;9.338;2024-03-02T10:24:28;0.87;;;0.57;;
20230;SDS011;10274;49.022;9.338;2024-03-02T10:27:02;0.80;;;0.70;;
20230;SDS011;10274;49.022;9.338;2024-03-02T10:29:38;0.93;;;0.60;;
20230;SDS011;10274;49.022;9.338;2024-03-02T10:32:06;0.57;;;0.57;;
20230;SDS011;10274;49.022;9.338;2024-03-02T10:34:36;2.10;;;0.73;;
20230;SDS011;10274;49.022;9.338;2024-03-02T10:37:03;0.40;;;0.40;;
20230;SDS011;10274;49.022;9.338;2024-03-02T10:39:31;0.27;;;0.27;;
20230;SDS011;10274;49.022;9.338;2024-03-02T10:42:00;0.77;;;0.40;;
20230;SDS011;10274;49.022;9.338;2024-03-02T10:44:30;0.63;;;0.50;;
20230;SDS011;10274;49.022;9.338;2024-03-02T10:46:59;0.50;;;0.50;;
20230;SDS011;10274;49.022;9.338;2024-03-02T10:49:27;0.60;;;0.50;;
20230;SDS011;10274;49.022;9.338;2024-03-02T10:51:55;0.57;;;0.57;;
20230;SDS011;10274;49.022;9.338;2024-03-02T10:54:22;0.53;;;0.50;;
20230;SDS011;10274;49.022;9.338;2024-03-02T10:56:51;0.60;;;0.40;;
20230;SDS011;10274;49.022;9.338;2024-03-02T10:59:22;0.30;;;0.30;;
20230;SDS011;10274;49.022;9.338;2024-03-02T11:01:55;0.33;;;0.33;;
20230;SDS011;10274;49.022;9.338;2024-03-02T11:04:23;0.67;;;0.50;;
20230;SDS011;10274;49.022;9.338;2024-03-02T11:06:51;0.20;;;0.20;;
20230;SDS011;10274;49.022;9.338;2024-03-02T11:09:21;0.23;;;0.23;;
20230;SDS011;10274;49.022;9.338;2024-03-02T11:11:51;0.93;;;0.83;;
20230;SDS011;10274;49.022;9.338;2024-03-02T11:14:23;0.20;;;0.20;;
20230;SDS011;10274;49.022;9.338;2024-03-02T11:16:51;0.30;;;0.30;;
20230;SDS011;10274;49.022;9.338;2024-03-02T11:19:20;0.37;;;0.37;;
20230;SDS011;10274;49.022;9.338;2024-03-02T11:21:47;0.20;;;0.20;;
20230;SDS011;10274;49.022;9.338;2024-03-02T11:24:30;0.10;;;0.10;;
20230;SDS011;10274;49.022;9.338;2024-03-02T11:26:59;0.50;;;0.20;;
20230;SDS011;10274;49.022;9.338;2024-03-02T11:29:44;0.20;;;0.20;;
20230;SDS011;10274;49.022;9.338;2024-03-02T11:32:15;0.57;;;0.20;;
20230;SDS011;10274;49.022;9.338;2024-03-02T11:34:44;0.90;;;0.37;;
20230;SDS011;10274;49.022;9.338;2024-03-02T11:37:13;0.17;;;0.17;;
20230;SDS011;10274;49.022;9.338;2024-03-02T11:39:40;0.30;;;0.30;;
20230;SDS011;10274;49.022;9.338;2024-03-02T11:42:08;0.20;;;0.10;;
20230;SDS011;10274;49.022;9.338;2024-03-02T11:44:35;0.77;;;0.20;;
20230;SDS011;10274;49.022;9.338;2024-03-02T11:47:05;0.20;;;0.20;;
20230;SDS011;10274;49.022;9.338;2024-03-02T11:49:36;0.10;;;0.10;;
20230;SDS011;10274;49.022;9.338;2024-03-02T11:52:06;0.03;;;0.03;;
20230;SDS011;10274;49.022;9.338;2024-03-02T11:54:34;0.00;;;0.00;;
20230;SDS011;10274;49.022;9.338;2024-03-02T11:57:05;0.20;;;0.20;;
20230;SDS011;10274;49.022;9.338;2024-03-02T11:59:32;0.53;;;0.30;;
20230;SDS011;10274;49.022;9.338;2024-03-02T12:01:59;0.10;;;0.10;;
20230;SDS011;10274;49.022;9.338;2024-03-02T12:04:26;0.20;;;0.20;;
20230;SDS011;10274;49.022;9.338;2024-03-02T12:06:54;0.00;;;0.00;;
20230;SDS011;10274;49.022;9.338;2024-03-02T12:09:23;0.20;;;0.20;;
20230;SDS011;10274;49.022;9.338;2024-03-02T12:12:00;0.20;;;0.20;;
20230;SDS011;10274;49.022;9.338;2024-03-02T12:14:28;0.00;;;0.00;;
20230;SDS011;10274;49.022;9.338;2024-03-02T12:16:55;0.00;;;0.00;;
20230;SDS011;10274;49.022;9.338;2024-03-02T12:19:23;0.20;;;0.20;;
20230;SDS011;10274;49.022;9.338;2024-03-02T12:21:50;0.00;;;0.00;;
20230;SDS011;10274;49.022;9.338;2024-03-02T12:24:17;0.00;;;0.00;;
20230;SDS011;10274;49.022;9.338;2024-03-02T12:26:46;0.00;;;0.00;;
20230;SDS011;10274;49.022;9.338;2024-03-02T12:29:13;0.10;;;0.10;;
20230;SDS011;10274;49.022;9.338;2024-03-02T12:31:41;0.10;;;0.10;;
20230;SDS011;10274;49.022;9.338;2024-03-02T12:34:08;0.00;;;0.00;;
20230;SDS011;10274;49.022;9.338;2024-03-02T12:36:37;0.10;;;0.10;;
20230;SDS011;10274;49.022;9.338;2024-03-02T12:39:04;0.20;;;0.20;;
20230;SDS011;10274;49.022;9.338;2024-03-02T12:41:31;0.10;;;0.10;;
20230;SDS011;10274;49.022;9.338;2024-03-02T12:43:59;0.30;;;0.30;;
20230;SDS011;10274;49.022;9.338;2024-03-02T12:46:25;0.10;;;0.10;;
20230;SDS011;10274;49.022;9.338;2024-03-02T12:48:52;0.10;;;0.10;;
20230;SDS011;10274;49.022;9.338;2024-03-02T12:51:19;0.30;;;0.07;;
20230;SDS011;10274;49.022;9.338;2024-03-02T12:53:52;0.10;;;0.10;;
20230;SDS011;10274;49.022;9.338;2024-03-02T12:56:19;0.10;;;0.10;;
20230;SDS011;10274;49.022;9.338;2024-03-02T12:58:46;0.07;;;0.07;;
20230;SDS011;10274;49.022;9.338;2024-03-02T13:01:14;0.30;;;0.00;;
20230;SDS011;10274;49.022;9.338;2024-03-02T13:03:44;0.10;;;0.10;;
20230;SDS011;10274;49.022;9.338;2024-03-02T13:06:10;0.00;;;0.00;;
20230;SDS011;10274;49.022;9.338;2024-03-02T13:08:37;0.30;;;0.20;;
20230;SDS011;10274;49.022;9.338;2024-03-02T13:11:05;0.10;;;0.10;;
20230;SDS011;10274;49.022;9.338;2024-03-02T13:13:32;0.20;;;0.20;;
20230;SDS011;10274;49.022;9.338;2024-03-02T13:15:59;0.00;;;0.00;;
20230;SDS011;10274;49.022;9.338;2024-03-02T13:18:29;0.00;;;0.00;;
20230;SDS011;10274;49.022;9.338;2024-03-02T13:20:56;0.10;;;0.10;;
20230;SDS011;10274;49.022;9.338;2024-03-02T13:23:23;0.00;;;0.00;;
20230;SDS011;10274;49.022;9.338;2024-03-02T13:25:49;0.00;;;0.00;;
20230;SDS011;10274;49.022;9.338;2024-03-02T13:28:16;0.10;;;0.10;;
20230;SDS011;10274;49.022;9.338;2024-03-02T13:30:43;0.00;;;0.00;;
20230;SDS011;10274;49.022;9.338;2024-03-02T13:33:10;0.00;;;0.00;;
20230;SDS011;10274;49.022;9.338;2024-03-02T13:35:38;0.10;;;0.10;;
20230;SDS011;10274;49.022;9.338;2024-03-02T13:38:05;0.10;;;0.10;;
20230;SDS011;10274;49.022;9.338;2024-03-02T13:40:31;0.10;;;0.10;;
20230;SDS011;10274;49.022;9.338;2024-03-02T13:43:00;0.17;;;0.17;;
20230;SDS011;10274;49.022;9.338;2024-03-02T13:45:27;0.00;;;0.00;;
20230;SDS011;10274;49.022;9.338;2024-03-02T13:47:54;0.03;;;0.03;;
20230;SDS011;10274;49.022;9.338;2024-03-02T13:50:21;0.00;;;0.00;;
20230;SDS011;10274;49.022;9.338;2024-03-02T13:52:49;0.03;;;0.03;;
20230;SDS011;10274;49.022;9.338;2024-03-02T13:55:15;0.10;;;0.10;;
20230;SDS011;10274;49.022;9.338;2024-03-02T13:57:42;0.00;;;0.00;;
20230;SDS011;10274;49.022;9.338;2024-03-02T14:00:09;0.00;;;0.00;;
20230;SDS011;10274;49.022;9.338;2024-03-02T14:02:37;0.10;;;0.10;;
20230;SDS011;10274;49.022;9.338;2024-03-02T14:05:04;0.00;;;0.00;;
20230;SDS011;10274;49.022;9.338;2024-03-02T14:07:32;0.00;;;0.00;;
20230;SDS011;10274;49.022;9.338;2024-03-02T14:10:00;0.10;;;0.10;;
20230;SDS011;10274;49.022;9.338;2024-03-02T14:12:27;0.07;;;0.07;;
20230;SDS011;10274;49.022;9.338;2024-03-02T14:14:54;0.17;;;0.13;;
20230;SDS011;10274;49.022;9.338;2024-03-02T14:17:23;0.57;;;0.23;;
20230;SDS011;10274;49.022;9.338;2024-03-02T14:19:50;0.00;;;0.00;;
20230;SDS011;10274;49.022;9.338;2024-03-02T14:22:17;0.00;;;0.00;;
20230;SDS011;10274;49.022;9.338;2024-03-02T14:24:44;0.03;;;0.00;;
20230;SDS011;10274;49.022;9.338;2024-03-02T14:27:12;0.10;;;0.07;;
20230;SDS011;10274;49.022;9.338;2024-03-02T14:29:39;0.10;;;0.10;;
20230;SDS011;10274;49.022;9.338;2024-03-02T14:32:06;0.20;;;0.17;;
20230;SDS011;10274;49.022;9.338;2024-03-02T14:34:33;0.10;;;0.10;;
20230;SDS011;10274;49.022;9.338;2024-03-02T14:37:00;0.00;;;0.00;;
20230;SDS011;10274;49.022;9.338;2024-03-02T14:39:27;0.00;;;0.00;;
20230;SDS011;10274;49.022;9.338;2024-03-02T14:41:54;0.10;;;0.10;;
20230;SDS011;10274;49.022;9.338;2024-03-02T14:44:22;0.00;;;0.00;;
20230;SDS011;10274;49.022;9.338;2024-03-02T14:46:49;0.03;;;0.03;;
20230;SDS011;10274;49.022;9.338;2024-03-02T14:49:16;0.20;;;0.20;;
20230;SDS011;10274;49.022;9.338;2024-03-02T14:51:43;0.67;;;0.10;;